"Pseudo-MPEC" for Change5

Created 2020 Dec 20 21:46:31 UT using Find_Orb

Click here for an explanation of pseudo-MPECs

Don't take either orbit or ephemerides too seriously. We're trying to beat radiotelescope RA/dec pointings into "astrometry", and the results are pretty rough. The extrapolated ephemerides are nearly meaningless; a small shift in speed would have a really outsized effect on where the object goes.

After various efforts to force a trajectory with apogee near the moon, I gave up and accepted the fact that the data showed something headed out in a near-parabolic orbit. No sooner did I do that than Scott Tilley posted a comment about the object going to the Earth-Sun L1 point, which is from this Weibo post (in Chinese).

So now we know why my ephemerides were garbage. I think things will be better now; Daniel Estévez, who reported the (ATA) data below, tells me the computed Doppler shifts are now a much better fit to what he's observed.

Unfortunately, Daniel only has time on ATA on weekends. Scott Tilley has recalibrated his antenna to get better RA/decs, so we'll get some data from him. That ought to get us some orbit improvement over the next week.

The claim is that this is going to the Earth-Sun L1 point to study the sun, but that appears to be a stretch; the object is nearly 50 degrees from the sun. So it'll be in the rough ballpark of the Earth-Sun L1 point, and can hang out there for a while before it slides off to someplace else. With over 100 kg of propellant, their choices for visiting NEOs are greater than I had expected (I'd assumed the tanks were really close to empty).

 
 Astrometry: 
     Change5  CK201217:093500   14.49       -04.79      Daylit  !            EKa
     Change5  CK201217:171600   14 43       -06 34      Daylit  !            ScT
     Change5  CK201218:075400   14.86       -08.39      Daylit  !            EKa
     Change5  CK201219:074500   226.05      -10.97      Daylit  !            EKa
     Change5  CK201219:154300   225.15      -09.87      Daylit  !            ATA
     Change5  CK201219:162500   225.25      -09.87      Daylit  !            ATA
     Change5  CK201219:170000   225.05      -09.87      Daylit  !            ATA
     Change5  CK201219:180000   225.05      -10.17      Daylit  !            ATA
     Change5  CK201219:191230   225.05      -10.07      Daylit  !            ATA
     Change5  CK201219:205230   224.95      -10.27      Daylit  !            ATA
     Change5  CK201220:173500   15.0883     -11.03      Daylit  !            ATA
     Change5  CK201220:180500   226.32      -10.93      Daylit  !            ATA
     Change5  CK201220:184000   226.22      -11.03      Daylit  !            ATA
     Change5  CK201220:192230   226.12      -10.93      Daylit  !            ATA
     Change5  CK201220:202230   226.02      -10.93      Daylit  !            ATA

Station data:
(ATA) Allen Telescope Array  (N40.817800 W121.469500)  US/California.
(EKa) Edgar Kaiser  (N54.353330 E10.279056)  Germany.
(ScT) Roberts Creek 1 (Scott Tilley)  (N49.434800 W123.668500)
   Canada/BritColumbia.

Orbital elements:  Change5
   Perigee 2020 Dec 16.66883153 +/- 0.0169 TT = 16:03:07.044 (JD 2459200.16883153)
Epoch 2020 Dec 17.0 TT = JDT 2459200.5                        Find_Orb
M   1.21044086329 +/- 0.13          (J2000 equator)
n   3.65506074097 +/- 0.224         Peri.   27.48516173 +/- 0.9
a900894.164456 +/- 36758            Node    34.46469513 +/- 0.9
e   0.9907153885 +/- 0.000634       Incl.   41.77831500 +/- 1.5
P  98.49d             U 11.7
q 8364.45225225 +/- 517    Q 0.01198829815 +/- 0.000502
11 of 15 observations 2020 Dec. 19-20 (28.7 hr); mean residual 290".096
Residuals in arcseconds: 
201217 EKa(1653+ 1776-)   201219 ATA  162+  313+    201220 ATA 74.2+  302-
201217 ScT(4011+ 2289-)   201219 ATA  341-  419+    201220 ATA  216+  109+
201218 EKa(2148+ 1746-)   201219 ATA 8.84+  502-    201220 ATA 36.5+  199-
201219 EKa(5151+ 4843-)   201219 ATA  379+ 12.5+    201220 ATA  129-  214+
201219 ATA  427-  172+    201219 ATA  337+  550-    201220 ATA  280-  271+

Ephemerides (geocentric):
Date (UTC) HH   RA             Dec           delta elong  mag
---- --------  ------------   ------------  ------ -----  ---
2020 12 17 00  14 05 55.142   +02 35 17.36   98215  58.0 15??
2020 12 17 01  14 10 10.802   +01 38 51.46  107373  56.6 16??
2020 12 17 02  14 13 46.851   +00 51 05.96  116137  55.5 16??
2020 12 17 03  14 16 53.037   +00 09 54.93  124561  54.5 16??
2020 12 17 04  14 19 36.006   -00 26 08.21  132687  53.7 16??
2020 12 17 05  14 22 00.471   -00 58 05.29  140547  52.9 17??
2020 12 17 06  14 24 09.887   -01 26 41.82  148171  52.3 17??
2020 12 17 07  14 26 06.853   -01 52 32.21  155580  51.7 17??
2020 12 17 08  14 27 53.370   -02 16 03.00  162793  51.2 17??
2020 12 17 09  14 29 31.008   -02 37 35.08  169827  50.7 17??
2020 12 17 10  14 31 01.018   -02 57 25.13  176696  50.2 17??
2020 12 17 11  14 32 24.414   -03 15 46.70  183411  49.8 17??
2020 12 17 12  14 33 42.026   -03 32 50.88  189984  49.4 18??
2020 12 17 13  14 34 54.544   -03 48 46.90  196423  49.1 18??
2020 12 17 14  14 36 02.544   -04 03 42.47  202737  48.8 18??
2020 12 17 15  14 37 06.513   -04 17 44.12  208934  48.5 18??
2020 12 17 16  14 38 06.867   -04 30 57.43  215019  48.2 18??
2020 12 17 17  14 39 03.961   -04 43 27.17  221000  47.9 18??
2020 12 17 18  14 39 58.105   -04 55 17.48  226881  47.7 18??
2020 12 17 19  14 40 49.564   -05 06 31.94  232667  47.4 18??
2020 12 17 20  14 41 38.574   -05 17 13.70  238363  47.2 18??
2020 12 17 21  14 42 25.340   -05 27 25.51  243974  47.0 18??
2020 12 17 22  14 43 10.045   -05 37 09.83  249502  46.8 18??
2020 12 17 23  14 43 52.849   -05 46 28.81  254951  46.6 18??
2020 12 18 00  14 44 33.896   -05 55 24.39  260325  46.4 19??
2020 12 18 01  14 45 13.315   -06 03 58.28  265626  46.3 19??
2020 12 18 02  14 45 51.221   -06 12 12.04  270858  46.1 19??
2020 12 18 03  14 46 27.718   -06 20 07.06  276023  45.9 19??
2020 12 18 04  14 47 02.901   -06 27 44.61  281123  45.8 19??
2020 12 18 05  14 47 36.854   -06 35 05.82  286160  45.7 19??
2020 12 18 06  14 48 09.656   -06 42 11.73  291138  45.5 19??
2020 12 18 07  14 48 41.376   -06 49 03.29  296057  45.4 19??
2020 12 18 08  14 49 12.079   -06 55 41.36  300920  45.3 19??
2020 12 18 09  14 49 41.824   -07 02 06.74  305728  45.2 19??
2020 12 18 10  14 50 10.667   -07 08 20.16  310483  45.1 19??
2020 12 18 11  14 50 38.656   -07 14 22.27  315187  44.9 19??
2020 12 18 12  14 51 05.838   -07 20 13.70  319841  44.8 19??
2020 12 18 13  14 51 32.255   -07 25 55.02  324447  44.7 19??
2020 12 18 14  14 51 57.947   -07 31 26.75  329006  44.7 19??
2020 12 18 15  14 52 22.951   -07 36 49.38  333518  44.6 19??
2020 12 18 16  14 52 47.299   -07 42 03.37  337987  44.5 19??
2020 12 18 17  14 53 11.025   -07 47 09.13  342411  44.4 19??
2020 12 18 18  14 53 34.157   -07 52 07.06  346794  44.3 19??
2020 12 18 19  14 53 56.724   -07 56 57.53  351135  44.2 19??
2020 12 18 20  14 54 18.749   -08 01 40.88  355436  44.2 19??
2020 12 18 21  14 54 40.259   -08 06 17.42  359697  44.1 19??
2020 12 18 22  14 55 01.275   -08 10 47.47  363920  44.0 20??
2020 12 18 23  14 55 21.818   -08 15 11.29  368105  44.0 20??
2020 12 19 00  14 55 41.908   -08 19 29.16  372254  43.9 20??
2020 12 19 01  14 56 01.564   -08 23 41.32  376367  43.8 20??
2020 12 19 02  14 56 20.804   -08 27 48.01  380445  43.8 20??
2020 12 19 03  14 56 39.644   -08 31 49.45  384488  43.7 20??
2020 12 19 04  14 56 58.100   -08 35 45.84  388497  43.7 20??
2020 12 19 05  14 57 16.187   -08 39 37.38  392474  43.6 20??
2020 12 19 06  14 57 33.918   -08 43 24.26  396418  43.5 20??
2020 12 19 07  14 57 51.307   -08 47 06.66  400331  43.5 20??
2020 12 19 08  14 58 08.367   -08 50 44.73  404212  43.5 20??
2020 12 19 09  14 58 25.108   -08 54 18.64  408064  43.4 20??
2020 12 19 10  14 58 41.544   -08 57 48.54  411885  43.4 20??
2020 12 19 11  14 58 57.684   -09 01 14.57  415676  43.3 20??
2020 12 19 12  14 59 13.539   -09 04 36.85  419439  43.3 20??
2020 12 19 13  14 59 29.118   -09 07 55.54  423174  43.2 20??
2020 12 19 14  14 59 44.430   -09 11 10.73  426881  43.2 20??
2020 12 19 15  14 59 59.485   -09 14 22.56  430560  43.2 20??
2020 12 19 16  15 00 14.291   -09 17 31.12  434213  43.1 20??
2020 12 19 17  15 00 28.855   -09 20 36.53  437839  43.1 20??
2020 12 19 18  15 00 43.186   -09 23 38.89  441439  43.1 20??
2020 12 19 19  15 00 57.291   -09 26 38.30  445014  43.0 20??
2020 12 19 20  15 01 11.177   -09 29 34.84  448564  43.0 20??
2020 12 19 21  15 01 24.850   -09 32 28.60  452088  43.0 20??
2020 12 19 22  15 01 38.317   -09 35 19.67  455589  42.9 20??
2020 12 19 23  15 01 51.584   -09 38 08.13  459065  42.9 20??
2020 12 20 00  15 02 04.657   -09 40 54.06  462518  42.9 20??
2020 12 20 01  15 02 17.541   -09 43 37.53  465948  42.9 20??
2020 12 20 02  15 02 30.243   -09 46 18.60  469354  42.8 20??
2020 12 20 03  15 02 42.766   -09 48 57.36  472738  42.8 20??
2020 12 20 04  15 02 55.117   -09 51 33.86  476100  42.8 20??
2020 12 20 05  15 03 07.300   -09 54 08.17  479440  42.8 20??
2020 12 20 06  15 03 19.319   -09 56 40.35  482758  42.8 20??
2020 12 20 07  15 03 31.180   -09 59 10.45  486055  42.7 20??
2020 12 20 08  15 03 42.886   -10 01 38.54  489331  42.7 20??
2020 12 20 09  15 03 54.441   -10 04 04.66  492586  42.7 20??
2020 12 20 10  15 04 05.849   -10 06 28.86  495821  42.7 20??
2020 12 20 11  15 04 17.115   -10 08 51.21  499035  42.7 20??
2020 12 20 12  15 04 28.242   -10 11 11.74  502230  42.6 20??
2020 12 20 13  15 04 39.233   -10 13 30.50  505405  42.6 20??
2020 12 20 14  15 04 50.092   -10 15 47.53  508560  42.6 20??
2020 12 20 15  15 05 00.822   -10 18 02.89  511696  42.6 20??
2020 12 20 16  15 05 11.427   -10 20 16.60  514813  42.6 20??
2020 12 20 17  15 05 21.909   -10 22 28.72  517912  42.6 20??
2020 12 20 18  15 05 32.271   -10 24 39.28  520992  42.6 20??
2020 12 20 19  15 05 42.517   -10 26 48.31  524054  42.6 20??
2020 12 20 20  15 05 52.649   -10 28 55.85  527097  42.5 20??
2020 12 20 21  15 06 02.670   -10 31 01.95  530123  42.5 20??
2020 12 20 22  15 06 12.582   -10 33 06.62  533132  42.5 21??
2020 12 20 23  15 06 22.388   -10 35 09.91  536123  42.5 21??
2020 12 21 00  15 06 32.091   -10 37 11.84  539096  42.5 21??
2020 12 21 01  15 06 41.693   -10 39 12.46  542053  42.5 21??
2020 12 21 02  15 06 51.195   -10 41 11.78  544993  42.5 21??
2020 12 21 03  15 07 00.601   -10 43 09.83  547916  42.5 21??
2020 12 21 04  15 07 09.913   -10 45 06.65  550823  42.5 21??
2020 12 21 05  15 07 19.132   -10 47 02.26  553713  42.5 21??
2020 12 21 06  15 07 28.261   -10 48 56.68  556587  42.5 21??
2020 12 21 07  15 07 37.301   -10 50 49.95  559446  42.5 21??
2020 12 21 08  15 07 46.255   -10 52 42.08  562288  42.5 21??
2020 12 21 09  15 07 55.125   -10 54 33.11  565115  42.5 21??
2020 12 21 10  15 08 03.912   -10 56 23.05  567927  42.5 21??
2020 12 21 11  15 08 12.617   -10 58 11.92  570723  42.5 21??
2020 12 21 12  15 08 21.244   -10 59 59.76  573504  42.5 21??
2020 12 21 13  15 08 29.793   -11 01 46.57  576270  42.4 21??
2020 12 21 14  15 08 38.265   -11 03 32.39  579022  42.4 21??
2020 12 21 15  15 08 46.664   -11 05 17.22  581759  42.4 21??
2020 12 21 16  15 08 54.989   -11 07 01.10  584481  42.4 21??
2020 12 21 17  15 09 03.244   -11 08 44.04  587188  42.4 21??
2020 12 21 18  15 09 11.428   -11 10 26.05  589882  42.4 21??
2020 12 21 19  15 09 19.544   -11 12 07.16  592561  42.4 21??
2020 12 21 20  15 09 27.592   -11 13 47.39  595227  42.4 21??
2020 12 21 21  15 09 35.575   -11 15 26.75  597878  42.4 21??
2020 12 21 22  15 09 43.494   -11 17 05.25  600516  42.5 21??
2020 12 21 23  15 09 51.349   -11 18 42.92  603140  42.5 21??
2020 12 22 00  15 09 59.142   -11 20 19.76  605751  42.5 21??
2020 12 22 01  15 10 06.875   -11 21 55.81  608348  42.5 21??
2020 12 22 02  15 10 14.548   -11 23 31.06  610932  42.5 21??
2020 12 22 03  15 10 22.163   -11 25 05.53  613503  42.5 21??
2020 12 22 04  15 10 29.720   -11 26 39.25  616062  42.5 21??
2020 12 22 05  15 10 37.221   -11 28 12.22  618607  42.5 21??
2020 12 22 06  15 10 44.667   -11 29 44.45  621139  42.5 21??
2020 12 22 07  15 10 52.059   -11 31 15.97  623659  42.5 21??
2020 12 22 08  15 10 59.398   -11 32 46.78  626166  42.5 21??
2020 12 22 09  15 11 06.686   -11 34 16.89  628661  42.5 21??
2020 12 22 10  15 11 13.922   -11 35 46.32  631143  42.5 21??
2020 12 22 11  15 11 21.108   -11 37 15.08  633613  42.5 21??
2020 12 22 12  15 11 28.245   -11 38 43.18  636071  42.5 21??
2020 12 22 13  15 11 35.333   -11 40 10.63  638517  42.5 21??
2020 12 22 14  15 11 42.375   -11 41 37.45  640951  42.5 21??
2020 12 22 15  15 11 49.369   -11 43 03.64  643373  42.5 21??
2020 12 22 16  15 11 56.319   -11 44 29.22  645783  42.5 21??
2020 12 22 17  15 12 03.223   -11 45 54.19  648182  42.5 21??
2020 12 22 18  15 12 10.084   -11 47 18.57  650569  42.5 21??
2020 12 22 19  15 12 16.901   -11 48 42.37  652945  42.6 21??
2020 12 22 20  15 12 23.676   -11 50 05.59  655309  42.6 21??
2020 12 22 21  15 12 30.410   -11 51 28.25  657662  42.6 21??
2020 12 22 22  15 12 37.103   -11 52 50.35  660004  42.6 21??
2020 12 22 23  15 12 43.755   -11 54 11.90  662334  42.6 21??
2020 12 23 00  15 12 50.368   -11 55 32.92  664654  42.6 21??
2020 12 23 01  15 12 56.943   -11 56 53.41  666962  42.6 21??
2020 12 23 02  15 13 03.480   -11 58 13.38  669260  42.6 21??
2020 12 23 03  15 13 09.979   -11 59 32.84  671547  42.6 21??
2020 12 23 04  15 13 16.441   -12 00 51.80  673823  42.6 21??
2020 12 23 05  15 13 22.868   -12 02 10.26  676089  42.6 21??
2020 12 23 06  15 13 29.259   -12 03 28.23  678344  42.6 21??
2020 12 23 07  15 13 35.616   -12 04 45.73  680588  42.7 21??
2020 12 23 08  15 13 41.939   -12 06 02.75  682822  42.7 21??
2020 12 23 09  15 13 48.228   -12 07 19.31  685046  42.7 21??
2020 12 23 10  15 13 54.484   -12 08 35.41  687259  42.7 21??
2020 12 23 11  15 14 00.707   -12 09 51.06  689463  42.7 21??
2020 12 23 12  15 14 06.900   -12 11 06.27  691656  42.7 21??
2020 12 23 13  15 14 13.060   -12 12 21.04  693839  42.7 21??
2020 12 23 14  15 14 19.191   -12 13 35.38  696012  42.7 21??
2020 12 23 15  15 14 25.291   -12 14 49.29  698175  42.7 21??
2020 12 23 16  15 14 31.361   -12 16 02.80  700328  42.8 21??
2020 12 23 17  15 14 37.403   -12 17 15.89  702472  42.8 21??
2020 12 23 18  15 14 43.416   -12 18 28.57  704605  42.8 21??
2020 12 23 19  15 14 49.401   -12 19 40.86  706729  42.8 21??
2020 12 23 20  15 14 55.358   -12 20 52.76  708844  42.8 21??
2020 12 23 21  15 15 01.288   -12 22 04.27  710949  42.8 21??
2020 12 23 22  15 15 07.192   -12 23 15.40  713044  42.8 21??
2020 12 23 23  15 15 13.069   -12 24 26.15  715130  42.8 21??
2020 12 24 00  15 15 18.921   -12 25 36.53  717207  42.9 21??
2020 12 24 01  15 15 24.748   -12 26 46.56  719274  42.9 21??
2020 12 24 02  15 15 30.550   -12 27 56.22  721332  42.9 21??
2020 12 24 03  15 15 36.328   -12 29 05.53  723381  42.9 21??
2020 12 24 04  15 15 42.081   -12 30 14.49  725421  42.9 21??
2020 12 24 05  15 15 47.812   -12 31 23.11  727452  42.9 21??
2020 12 24 06  15 15 53.519   -12 32 31.38  729474  42.9 21??
2020 12 24 07  15 15 59.203   -12 33 39.33  731486  42.9 21??
2020 12 24 08  15 16 04.866   -12 34 46.95  733490  43.0 21??
2020 12 24 09  15 16 10.506   -12 35 54.24  735485  43.0 21??
2020 12 24 10  15 16 16.125   -12 37 01.22  737471  43.0 21??
2020 12 24 11  15 16 21.723   -12 38 07.88  739449  43.0 21??
2020 12 24 12  15 16 27.300   -12 39 14.23  741418  43.0 21??
2020 12 24 13  15 16 32.857   -12 40 20.27  743378  43.0 21??
2020 12 24 14  15 16 38.394   -12 41 26.01  745329  43.0 21??
2020 12 24 15  15 16 43.911   -12 42 31.46  747272  43.1 21??
2020 12 24 16  15 16 49.409   -12 43 36.61  749207  43.1 21??
2020 12 24 17  15 16 54.888   -12 44 41.47  751133  43.1 21??
2020 12 24 18  15 17 00.349   -12 45 46.05  753050  43.1 21??
2020 12 24 19  15 17 05.791   -12 46 50.35  754959  43.1 21??
2020 12 24 20  15 17 11.216   -12 47 54.37  756860  43.1 21??
2020 12 24 21  15 17 16.623   -12 48 58.12  758753  43.2 21??
2020 12 24 22  15 17 22.013   -12 50 01.60  760637  43.2 21??
2020 12 24 23  15 17 27.385   -12 51 04.81  762514  43.2 21??
2020 12 25 00  15 17 32.742   -12 52 07.76  764382  43.2 21??
2020 12 25 01  15 17 38.082   -12 53 10.46  766242  43.2 21??
2020 12 25 02  15 17 43.406   -12 54 12.89  768094  43.2 21??
2020 12 25 03  15 17 48.714   -12 55 15.08  769938  43.2 21??
2020 12 25 04  15 17 54.007   -12 56 17.02  771774  43.3 21??
2020 12 25 05  15 17 59.285   -12 57 18.71  773602  43.3 21??
2020 12 25 06  15 18 04.548   -12 58 20.17  775422  43.3 21??
2020 12 25 07  15 18 09.797   -12 59 21.38  777235  43.3 21??
2020 12 25 08  15 18 15.031   -13 00 22.36  779039  43.3 21??
2020 12 25 09  15 18 20.252   -13 01 23.11  780836  43.3 21??
2020 12 25 10  15 18 25.459   -13 02 23.64  782626  43.4 21??
2020 12 25 11  15 18 30.652   -13 03 23.93  784407  43.4 21??
2020 12 25 12  15 18 35.833   -13 04 24.01  786181  43.4 21??
2020 12 25 13  15 18 41.000   -13 05 23.86  787947  43.4 21??
2020 12 25 14  15 18 46.155   -13 06 23.50  789706  43.4 21??
2020 12 25 15  15 18 51.298   -13 07 22.93  791457  43.4 21??
2020 12 25 16  15 18 56.428   -13 08 22.14  793201  43.5 21??
2020 12 25 17  15 19 01.547   -13 09 21.15  794937  43.5 21??
2020 12 25 18  15 19 06.654   -13 10 19.95  796666  43.5 21??
2020 12 25 19  15 19 11.750   -13 11 18.56  798387  43.5 21??
2020 12 25 20  15 19 16.835   -13 12 16.96  800101  43.5 21??
2020 12 25 21  15 19 21.908   -13 13 15.16  801808  43.5 21??
2020 12 25 22  15 19 26.972   -13 14 13.18  803508  43.6 21??
2020 12 25 23  15 19 32.024   -13 15 11.00  805200  43.6 21??
2020 12 26 00  15 19 37.067   -13 16 08.63  806885  43.6 21??
2020 12 26 01  15 19 42.100   -13 17 06.07  808563  43.6 21??
2020 12 26 02  15 19 47.123   -13 18 03.34  810234  43.6 21??
2020 12 26 03  15 19 52.136   -13 19 00.42  811897  43.6 21??
2020 12 26 04  15 19 57.141   -13 19 57.32  813554  43.7 21??
2020 12 26 05  15 20 02.136   -13 20 54.04  815203  43.7 21??
2020 12 26 06  15 20 07.122   -13 21 50.59  816846  43.7 21??
2020 12 26 07  15 20 12.100   -13 22 46.97  818481  43.7 21??
2020 12 26 08  15 20 17.070   -13 23 43.18  820110  43.7 21??
2020 12 26 09  15 20 22.031   -13 24 39.23  821732  43.8 21??
2020 12 26 10  15 20 26.984   -13 25 35.10  823346  43.8 21??
2020 12 26 11  15 20 31.930   -13 26 30.82  824954  43.8 21??
2020 12 26 12  15 20 36.867   -13 27 26.37  826555  43.8 21??
2020 12 26 13  15 20 41.798   -13 28 21.77  828150  43.8 21??
2020 12 26 14  15 20 46.721   -13 29 17.01  829737  43.8 21??
2020 12 26 15  15 20 51.638   -13 30 12.09  831318  43.9 21??
2020 12 26 16  15 20 56.547   -13 31 07.03  832892  43.9 21??
2020 12 26 17  15 21 01.450   -13 32 01.81  834459  43.9 21??
2020 12 26 18  15 21 06.346   -13 32 56.44  836020  43.9 21??
2020 12 26 19  15 21 11.236   -13 33 50.93  837574  43.9 21??
2020 12 26 20  15 21 16.121   -13 34 45.28  839122  44.0 21??
2020 12 26 21  15 21 20.999   -13 35 39.48  840662  44.0 21??
2020 12 26 22  15 21 25.871   -13 36 33.54  842197  44.0 21??
2020 12 26 23  15 21 30.739   -13 37 27.47  843725  44.0 21??
2020 12 27 00  15 21 35.600   -13 38 21.26  845246  44.0 21??
2020 12 27 01  15 21 40.457   -13 39 14.91  846761  44.0 21??
2020 12 27 02  15 21 45.308   -13 40 08.43  848269  44.1 21??
2020 12 27 03  15 21 50.155   -13 41 01.82  849771  44.1 21??
2020 12 27 04  15 21 54.997   -13 41 55.08  851267  44.1 21??
2020 12 27 05  15 21 59.835   -13 42 48.21  852756  44.1 21??
2020 12 27 06  15 22 04.668   -13 43 41.22  854239  44.1 21??
2020 12 27 07  15 22 09.497   -13 44 34.10  855715  44.2 21??
2020 12 27 08  15 22 14.322   -13 45 26.86  857185  44.2 21??
2020 12 27 09  15 22 19.144   -13 46 19.50  858649  44.2 21??
2020 12 27 10  15 22 23.962   -13 47 12.02  860107  44.2 21??
2020 12 27 11  15 22 28.776   -13 48 04.42  861558  44.2 21??
2020 12 27 12  15 22 33.587   -13 48 56.71  863003  44.3 21??
2020 12 27 13  15 22 38.394   -13 49 48.88  864442  44.3 21??
2020 12 27 14  15 22 43.199   -13 50 40.94  865875  44.3 21??
2020 12 27 15  15 22 48.001   -13 51 32.89  867302  44.3 21??
2020 12 27 16  15 22 52.799   -13 52 24.73  868723  44.3 21??
2020 12 27 17  15 22 57.596   -13 53 16.46  870137  44.4 21??
2020 12 27 18  15 23 02.390   -13 54 08.09  871546  44.4 21??
2020 12 27 19  15 23 07.182   -13 54 59.61  872948  44.4 21??
2020 12 27 20  15 23 11.971   -13 55 51.03  874344  44.4 21??
2020 12 27 21  15 23 16.759   -13 56 42.34  875735  44.4 21??
2020 12 27 22  15 23 21.544   -13 57 33.56  877119  44.4 21??
2020 12 27 23  15 23 26.328   -13 58 24.67  878497  44.5 21??
2020 12 28 00  15 23 31.111   -13 59 15.69  879870  44.5 21??
2020 12 28 01  15 23 35.892   -14 00 06.61  881236  44.5 21??
2020 12 28 02  15 23 40.672   -14 00 57.44  882597  44.5 21??
2020 12 28 03  15 23 45.450   -14 01 48.17  883951  44.5 21??
2020 12 28 04  15 23 50.228   -14 02 38.81  885300  44.6 21??
2020 12 28 05  15 23 55.004   -14 03 29.36  886643  44.6 21??
2020 12 28 06  15 23 59.780   -14 04 19.82  887980  44.6 21??
2020 12 28 07  15 24 04.555   -14 05 10.19  889311  44.6 21??
2020 12 28 08  15 24 09.330   -14 06 00.47  890637  44.6 21??
2020 12 28 09  15 24 14.105   -14 06 50.67  891956  44.7 21??
2020 12 28 10  15 24 18.879   -14 07 40.79  893270  44.7 21??
2020 12 28 11  15 24 23.653   -14 08 30.82  894578  44.7 21??
2020 12 28 12  15 24 28.427   -14 09 20.77  895881  44.7 21??
2020 12 28 13  15 24 33.202   -14 10 10.64  897177  44.7 21??
2020 12 28 14  15 24 37.976   -14 11 00.43  898469  44.8 21??
2020 12 28 15  15 24 42.751   -14 11 50.14  899754  44.8 21??
2020 12 28 16  15 24 47.527   -14 12 39.77  901034  44.8 21??
2020 12 28 17  15 24 52.303   -14 13 29.33  902308  44.8 21??
2020 12 28 18  15 24 57.080   -14 14 18.81  903576  44.8 21??
2020 12 28 19  15 25 01.858   -14 15 08.22  904839  44.9 21??
2020 12 28 20  15 25 06.637   -14 15 57.55  906096  44.9 21??
2020 12 28 21  15 25 11.417   -14 16 46.82  907347  44.9 21??
2020 12 28 22  15 25 16.198   -14 17 36.01  908594  44.9 21??
2020 12 28 23  15 25 20.981   -14 18 25.14  909834  44.9 21??
2020 12 29 00  15 25 25.765   -14 19 14.20  911069  45.0 21??
2020 12 29 01  15 25 30.551   -14 20 03.19  912298  45.0 21??
2020 12 29 02  15 25 35.338   -14 20 52.11  913522  45.0 21??
2020 12 29 03  15 25 40.127   -14 21 40.97  914741  45.0 21??
2020 12 29 04  15 25 44.918   -14 22 29.76  915954  45.0 21??
2020 12 29 05  15 25 49.712   -14 23 18.50  917161  45.0 21??
2020 12 29 06  15 25 54.507   -14 24 07.17  918363  45.1 21??
2020 12 29 07  15 25 59.305   -14 24 55.78  919560  45.1 21??
2020 12 29 08  15 26 04.105   -14 25 44.33  920751  45.1 21??
2020 12 29 09  15 26 08.907   -14 26 32.82  921937  45.1 21??
2020 12 29 10  15 26 13.712   -14 27 21.25  923118  45.1 21??
2020 12 29 11  15 26 18.520   -14 28 09.63  924293  45.2 21??
2020 12 29 12  15 26 23.331   -14 28 57.95  925462  45.2 21??
2020 12 29 13  15 26 28.144   -14 29 46.21  926627  45.2 21??
2020 12 29 14  15 26 32.961   -14 30 34.43  927786  45.2 21??
2020 12 29 15  15 26 37.781   -14 31 22.58  928939  45.2 21??
2020 12 29 16  15 26 42.603   -14 32 10.69  930088  45.3 21??
2020 12 29 17  15 26 47.430   -14 32 58.75  931231  45.3 21??
2020 12 29 18  15 26 52.259   -14 33 46.75  932369  45.3 21??
2020 12 29 19  15 26 57.092   -14 34 34.71  933501  45.3 21??
2020 12 29 20  15 27 01.929   -14 35 22.61  934628  45.3 21??
2020 12 29 21  15 27 06.770   -14 36 10.47  935750  45.4 21??
2020 12 29 22  15 27 11.614   -14 36 58.29  936867  45.4 21??
2020 12 29 23  15 27 16.462   -14 37 46.05  937979  45.4 21??
2020 12 30 00  15 27 21.314   -14 38 33.77  939085  45.4 21??
2020 12 30 01  15 27 26.170   -14 39 21.45  940186  45.4 21??
2020 12 30 02  15 27 31.031   -14 40 09.09  941282  45.5 21??
2020 12 30 03  15 27 35.896   -14 40 56.68  942373  45.5 21??
2020 12 30 04  15 27 40.765   -14 41 44.23  943459  45.5 21??
2020 12 30 05  15 27 45.638   -14 42 31.74  944539  45.5 21??
2020 12 30 06  15 27 50.516   -14 43 19.21  945615  45.5 21??
2020 12 30 07  15 27 55.399   -14 44 06.64  946685  45.6 21??
2020 12 30 08  15 28 00.287   -14 44 54.03  947750  45.6 21??
2020 12 30 09  15 28 05.179   -14 45 41.38  948810  45.6 21??
2020 12 30 10  15 28 10.076   -14 46 28.70  949865  45.6 21??
2020 12 30 11  15 28 14.979   -14 47 15.98  950914  45.6 21??
2020 12 30 12  15 28 19.886   -14 48 03.22  951959  45.7 21??
2020 12 30 13  15 28 24.799   -14 48 50.43  952999  45.7 21??
2020 12 30 14  15 28 29.717   -14 49 37.61  954033  45.7 21??
2020 12 30 15  15 28 34.640   -14 50 24.75  955063  45.7 21??
2020 12 30 16  15 28 39.568   -14 51 11.86  956087  45.7 21??
2020 12 30 17  15 28 44.503   -14 51 58.94  957107  45.8 21??
2020 12 30 18  15 28 49.442   -14 52 45.99  958121  45.8 21??
2020 12 30 19  15 28 54.388   -14 53 33.00  959130  45.8 21??
2020 12 30 20  15 28 59.339   -14 54 19.99  960135  45.8 21??
2020 12 30 21  15 29 04.296   -14 55 06.95  961134  45.8 21??
2020 12 30 22  15 29 09.259   -14 55 53.88  962129  45.8 21??
2020 12 30 23  15 29 14.228   -14 56 40.78  963118  45.9 21??
2020 12 31 00  15 29 19.203   -14 57 27.66  964102  45.9 21??
2020 12 31 01  15 29 24.185   -14 58 14.51  965082  45.9 21??
2020 12 31 02  15 29 29.172   -14 59 01.33  966056  45.9 21??
2020 12 31 03  15 29 34.166   -14 59 48.13  967026  45.9 21??
2020 12 31 04  15 29 39.167   -15 00 34.91  967991  46.0 21??
2020 12 31 05  15 29 44.173   -15 01 21.66  968950  46.0 21??
2020 12 31 06  15 29 49.187   -15 02 08.39  969905  46.0 21??
2020 12 31 07  15 29 54.207   -15 02 55.10  970855  46.0 21??
2020 12 31 08  15 29 59.234   -15 03 41.78  971800  46.0 21??
2020 12 31 09  15 30 04.267   -15 04 28.44  972740  46.1 21??
2020 12 31 10  15 30 09.308   -15 05 15.09  973675  46.1 21??
2020 12 31 11  15 30 14.355   -15 06 01.71  974605  46.1 21??
2020 12 31 12  15 30 19.409   -15 06 48.31  975531  46.1 21??
2020 12 31 13  15 30 24.471   -15 07 34.90  976451  46.1 21??
2020 12 31 14  15 30 29.539   -15 08 21.47  977367  46.2 21??
2020 12 31 15  15 30 34.615   -15 09 08.02  978278  46.2 21??
2020 12 31 16  15 30 39.698   -15 09 54.55  979184  46.2 21??
2020 12 31 17  15 30 44.788   -15 10 41.07  980085  46.2 21??
2020 12 31 18  15 30 49.886   -15 11 27.57  980981  46.2 21??
2020 12 31 19  15 30 54.992   -15 12 14.05  981873  46.2 21??
2020 12 31 20  15 31 00.105   -15 13 00.52  982759  46.3 21??
2020 12 31 21  15 31 05.225   -15 13 46.98  983641  46.3 21??
2020 12 31 22  15 31 10.354   -15 14 33.42  984518  46.3 21??
2020 12 31 23  15 31 15.490   -15 15 19.85  985391  46.3 21??
2021 01 01 00  15 31 20.634   -15 16 06.27  986258  46.3 21??
2021 01 01 01  15 31 25.785   -15 16 52.67  987121  46.4 21??
2021 01 01 02  15 31 30.945   -15 17 39.07  987978  46.4 21??
2021 01 01 03  15 31 36.113   -15 18 25.45  988832  46.4 21??
2021 01 01 04  15 31 41.289   -15 19 11.82  989680  46.4 21??
2021 01 01 05  15 31 46.473   -15 19 58.18  990523  46.4 21??
2021 01 01 06  15 31 51.665   -15 20 44.54  991362  46.5 21??
2021 01 01 07  15 31 56.866   -15 21 30.88  992196  46.5 21??
2021 01 01 08  15 32 02.074   -15 22 17.21  993025  46.5 21??
2021 01 01 09  15 32 07.292   -15 23 03.54  993850  46.5 21??
2021 01 01 10  15 32 12.517   -15 23 49.86  994670  46.5 21??
2021 01 01 11  15 32 17.752   -15 24 36.17  995485  46.5 21??
2021 01 01 12  15 32 22.995   -15 25 22.48  996295  46.6 21??
2021 01 01 13  15 32 28.246   -15 26 08.78  997100  46.6 21??
2021 01 01 14  15 32 33.506   -15 26 55.07  997901  46.6 21??
2021 01 01 15  15 32 38.775   -15 27 41.36  998697  46.6 21??
2021 01 01 16  15 32 44.053   -15 28 27.65  999489  46.6 21??
2021 01 01 17  15 32 49.340   -15 29 13.93  .00669  46.7 21??
2021 01 01 18  15 32 54.635   -15 30 00.20  .00669  46.7 21??
2021 01 01 19  15 32 59.940   -15 30 46.48  .00670  46.7 21??
2021 01 01 20  15 33 05.253   -15 31 32.75  .00670  46.7 21??
2021 01 01 21  15 33 10.576   -15 32 19.01  .00671  46.7 21??
2021 01 01 22  15 33 15.908   -15 33 05.28  .00671  46.7 21??
2021 01 01 23  15 33 21.249   -15 33 51.54  .00672  46.8 21??
2021 01 02 00  15 33 26.599   -15 34 37.80  .00672  46.8 21??
2021 01 02 01  15 33 31.958   -15 35 24.06  .00673  46.8 21??
2021 01 02 02  15 33 37.327   -15 36 10.32  .00673  46.8 21??
2021 01 02 03  15 33 42.706   -15 36 56.58  .00674  46.8 21??
2021 01 02 04  15 33 48.093   -15 37 42.85  .00674  46.9 21??
2021 01 02 05  15 33 53.491   -15 38 29.11  .00675  46.9 21??
2021 01 02 06  15 33 58.898   -15 39 15.37  .00675  46.9 21??
2021 01 02 07  15 34 04.314   -15 40 01.63  .00676  46.9 21??
2021 01 02 08  15 34 09.740   -15 40 47.90  .00676  46.9 21??
2021 01 02 09  15 34 15.176   -15 41 34.17  .00677  46.9 21??
2021 01 02 10  15 34 20.622   -15 42 20.44  .00677  47.0 21??
2021 01 02 11  15 34 26.077   -15 43 06.71  .00678  47.0 21??
2021 01 02 12  15 34 31.542   -15 43 52.98  .00678  47.0 21??
2021 01 02 13  15 34 37.017   -15 44 39.26  .00679  47.0 21??
2021 01 02 14  15 34 42.502   -15 45 25.55  .00679  47.0 21??
2021 01 02 15  15 34 47.997   -15 46 11.84  .00679  47.0 21??
2021 01 02 16  15 34 53.503   -15 46 58.13  .00680  47.1 21??
2021 01 02 17  15 34 59.018   -15 47 44.43  .00680  47.1 21??
2021 01 02 18  15 35 04.543   -15 48 30.73  .00681  47.1 21??
2021 01 02 19  15 35 10.078   -15 49 17.04  .00681  47.1 21??
2021 01 02 20  15 35 15.624   -15 50 03.35  .00682  47.1 21??
2021 01 02 21  15 35 21.180   -15 50 49.68  .00682  47.2 21??
2021 01 02 22  15 35 26.746   -15 51 36.00  .00683  47.2 21??
2021 01 02 23  15 35 32.323   -15 52 22.34  .00683  47.2 21??
2021 01 03 00  15 35 37.910   -15 53 08.68  .00683  47.2 21??
2021 01 03 01  15 35 43.507   -15 53 55.03  .00684  47.2 21??
2021 01 03 02  15 35 49.115   -15 54 41.39  .00684  47.2 21??
2021 01 03 03  15 35 54.733   -15 55 27.75  .00685  47.3 21??
2021 01 03 04  15 36 00.362   -15 56 14.13  .00685  47.3 21??
2021 01 03 05  15 36 06.001   -15 57 00.51  .00685  47.3 21??
2021 01 03 06  15 36 11.651   -15 57 46.90  .00686  47.3 21??
2021 01 03 07  15 36 17.312   -15 58 33.30  .00686  47.3 21??
2021 01 03 08  15 36 22.983   -15 59 19.71  .00687  47.3 21??
2021 01 03 09  15 36 28.665   -16 00 06.13  .00687  47.4 21??
2021 01 03 10  15 36 34.358   -16 00 52.56  .00688  47.4 21??
2021 01 03 11  15 36 40.061   -16 01 39.01  .00688  47.4 21??
2021 01 03 12  15 36 45.776   -16 02 25.46  .00688  47.4 21??
2021 01 03 13  15 36 51.501   -16 03 11.92  .00689  47.4 21??
2021 01 03 14  15 36 57.237   -16 03 58.40  .00689  47.4 21??
2021 01 03 15  15 37 02.985   -16 04 44.88  .00689  47.5 21??
2021 01 03 16  15 37 08.743   -16 05 31.38  .00690  47.5 21??
2021 01 03 17  15 37 14.512   -16 06 17.89  .00690  47.5 21??
2021 01 03 18  15 37 20.292   -16 07 04.41  .00691  47.5 21??
2021 01 03 19  15 37 26.083   -16 07 50.94  .00691  47.5 21??
2021 01 03 20  15 37 31.886   -16 08 37.49  .00691  47.5 21??
2021 01 03 21  15 37 37.699   -16 09 24.05  .00692  47.6 21??
2021 01 03 22  15 37 43.524   -16 10 10.62  .00692  47.6 21??
2021 01 03 23  15 37 49.360   -16 10 57.21  .00692  47.6 21??
2021 01 04 00  15 37 55.207   -16 11 43.81  .00693  47.6 21??
2021 01 04 01  15 38 01.065   -16 12 30.43  .00693  47.6 21??
2021 01 04 02  15 38 06.935   -16 13 17.05  .00693  47.6 21??
2021 01 04 03  15 38 12.816   -16 14 03.70  .00694  47.7 21??
2021 01 04 04  15 38 18.708   -16 14 50.36  .00694  47.7 21??
2021 01 04 05  15 38 24.612   -16 15 37.03  .00695  47.7 21??
2021 01 04 06  15 38 30.527   -16 16 23.71  .00695  47.7 21??
2021 01 04 07  15 38 36.454   -16 17 10.42  .00695  47.7 21??
2021 01 04 08  15 38 42.392   -16 17 57.13  .00696  47.7 21??
2021 01 04 09  15 38 48.341   -16 18 43.87  .00696  47.7 21??
2021 01 04 10  15 38 54.302   -16 19 30.62  .00696  47.8 21??
2021 01 04 11  15 39 00.275   -16 20 17.38  .00696  47.8 21??
2021 01 04 12  15 39 06.259   -16 21 04.16  .00697  47.8 21??
2021 01 04 13  15 39 12.255   -16 21 50.96  .00697  47.8 21??
2021 01 04 14  15 39 18.262   -16 22 37.78  .00697  47.8 21??
2021 01 04 15  15 39 24.281   -16 23 24.61  .00698  47.8 21??
2021 01 04 16  15 39 30.312   -16 24 11.46  .00698  47.9 21??
2021 01 04 17  15 39 36.354   -16 24 58.32  .00698  47.9 21??
2021 01 04 18  15 39 42.408   -16 25 45.20  .00699  47.9 21??
2021 01 04 19  15 39 48.474   -16 26 32.10  .00699  47.9 21??
2021 01 04 20  15 39 54.552   -16 27 19.02  .00699  47.9 21??
2021 01 04 21  15 40 00.641   -16 28 05.96  .00700  47.9 21??
2021 01 04 22  15 40 06.743   -16 28 52.91  .00700  48.0 21??
2021 01 04 23  15 40 12.856   -16 29 39.88  .00700  48.0 21??
2021 01 05 00  15 40 18.981   -16 30 26.87  .00700  48.0 21??
2021 01 05 01  15 40 25.117   -16 31 13.88  .00701  48.0 21??
2021 01 05 02  15 40 31.266   -16 32 00.91  .00701  48.0 21??
2021 01 05 03  15 40 37.427   -16 32 47.95  .00701  48.0 21??
2021 01 05 04  15 40 43.599   -16 33 35.02  .00702  48.0 21??
2021 01 05 05  15 40 49.784   -16 34 22.10  .00702  48.1 21??
2021 01 05 06  15 40 55.980   -16 35 09.20  .00702  48.1 21??
2021 01 05 07  15 41 02.189   -16 35 56.33  .00702  48.1 21??
2021 01 05 08  15 41 08.409   -16 36 43.47  .00703  48.1 21??
2021 01 05 09  15 41 14.642   -16 37 30.63  .00703  48.1 21??
2021 01 05 10  15 41 20.887   -16 38 17.81  .00703  48.1 21??
2021 01 05 11  15 41 27.143   -16 39 05.01  .00703  48.1 21??
2021 01 05 12  15 41 33.412   -16 39 52.24  .00704  48.2 21??
2021 01 05 13  15 41 39.693   -16 40 39.48  .00704  48.2 21??
2021 01 05 14  15 41 45.986   -16 41 26.74  .00704  48.2 21??
2021 01 05 15  15 41 52.292   -16 42 14.02  .00704  48.2 21??
2021 01 05 16  15 41 58.609   -16 43 01.33  .00705  48.2 21??
2021 01 05 17  15 42 04.938   -16 43 48.65  .00705  48.2 21??
2021 01 05 18  15 42 11.280   -16 44 36.00  .00705  48.2 21??
2021 01 05 19  15 42 17.634   -16 45 23.36  .00705  48.3 21??
2021 01 05 20  15 42 24.001   -16 46 10.75  .00705  48.3 21??
2021 01 05 21  15 42 30.379   -16 46 58.16  .00706  48.3 21??
2021 01 05 22  15 42 36.770   -16 47 45.59  .00706  48.3 21??
2021 01 05 23  15 42 43.173   -16 48 33.04  .00706  48.3 21??
2021 01 06 00  15 42 49.588   -16 49 20.51  .00706  48.3 21??
2021 01 06 01  15 42 56.016   -16 50 08.00  .00706  48.3 21??
2021 01 06 02  15 43 02.456   -16 50 55.52  .00707  48.4 21??
2021 01 06 03  15 43 08.908   -16 51 43.06  .00707  48.4 21??
2021 01 06 04  15 43 15.373   -16 52 30.62  .00707  48.4 21??
2021 01 06 05  15 43 21.850   -16 53 18.20  .00707  48.4 21??
2021 01 06 06  15 43 28.339   -16 54 05.80  .00707  48.4 21??
2021 01 06 07  15 43 34.841   -16 54 53.43  .00708  48.4 21??
2021 01 06 08  15 43 41.355   -16 55 41.08  .00708  48.4 21??
2021 01 06 09  15 43 47.882   -16 56 28.75  .00708  48.5 21??
2021 01 06 10  15 43 54.421   -16 57 16.45  .00708  48.5 21??
2021 01 06 11  15 44 00.973   -16 58 04.16  .00708  48.5 21??
2021 01 06 12  15 44 07.537   -16 58 51.90  .00709  48.5 21??
2021 01 06 13  15 44 14.114   -16 59 39.66  .00709  48.5 21??
2021 01 06 14  15 44 20.703   -17 00 27.45  .00709  48.5 21??
2021 01 06 15  15 44 27.304   -17 01 15.26  .00709  48.5 21??
2021 01 06 16  15 44 33.918   -17 02 03.09  .00709  48.6 21??
2021 01 06 17  15 44 40.545   -17 02 50.95  .00709  48.6 21??
2021 01 06 18  15 44 47.184   -17 03 38.82  .00710  48.6 21??
2021 01 06 19  15 44 53.836   -17 04 26.73  .00710  48.6 21??
2021 01 06 20  15 45 00.500   -17 05 14.65  .00710  48.6 21??
2021 01 06 21  15 45 07.177   -17 06 02.60  .00710  48.6 21??
2021 01 06 22  15 45 13.867   -17 06 50.57  .00710  48.6 21??
2021 01 06 23  15 45 20.569   -17 07 38.57  .00710  48.6 21??
2021 01 07 00  15 45 27.283   -17 08 26.59  .00710  48.7 21??
2021 01 07 01  15 45 34.011   -17 09 14.64  .00711  48.7 21??
2021 01 07 02  15 45 40.751   -17 10 02.70  .00711  48.7 21??
2021 01 07 03  15 45 47.503   -17 10 50.80  .00711  48.7 21??
2021 01 07 04  15 45 54.269   -17 11 38.91  .00711  48.7 21??
2021 01 07 05  15 46 01.047   -17 12 27.05  .00711  48.7 21??
2021 01 07 06  15 46 07.838   -17 13 15.22  .00711  48.7 21??
2021 01 07 07  15 46 14.641   -17 14 03.41  .00711  48.8 21??
2021 01 07 08  15 46 21.457   -17 14 51.62  .00711  48.8 21??
2021 01 07 09  15 46 28.286   -17 15 39.86  .00711  48.8 21??
2021 01 07 10  15 46 35.128   -17 16 28.13  .00712  48.8 21??
2021 01 07 11  15 46 41.982   -17 17 16.42  .00712  48.8 21??
2021 01 07 12  15 46 48.849   -17 18 04.73  .00712  48.8 21??
2021 01 07 13  15 46 55.729   -17 18 53.07  .00712  48.8 21??
2021 01 07 14  15 47 02.622   -17 19 41.43  .00712  48.8 21??
2021 01 07 15  15 47 09.528   -17 20 29.82  .00712  48.9 21??
2021 01 07 16  15 47 16.446   -17 21 18.23  .00712  48.9 21??
2021 01 07 17  15 47 23.377   -17 22 06.67  .00712  48.9 21??
2021 01 07 18  15 47 30.321   -17 22 55.14  .00712  48.9 21??
2021 01 07 19  15 47 37.278   -17 23 43.62  .00712  48.9 21??
2021 01 07 20  15 47 44.248   -17 24 32.14  .00712  48.9 21??
2021 01 07 21  15 47 51.231   -17 25 20.68  .00713  48.9 21??
2021 01 07 22  15 47 58.226   -17 26 09.25  .00713  48.9 21??
2021 01 07 23  15 48 05.235   -17 26 57.84  .00713  49.0 21??
2021 01 08 00  15 48 12.256   -17 27 46.45  .00713  49.0 21??
2021 01 08 01  15 48 19.291   -17 28 35.10  .00713  49.0 21??
2021 01 08 02  15 48 26.338   -17 29 23.77  .00713  49.0 21??
2021 01 08 03  15 48 33.398   -17 30 12.46  .00713  49.0 21??
2021 01 08 04  15 48 40.471   -17 31 01.18  .00713  49.0 21??
2021 01 08 05  15 48 47.558   -17 31 49.93  .00713  49.0 21??
2021 01 08 06  15 48 54.657   -17 32 38.70  .00713  49.0 21??
2021 01 08 07  15 49 01.769   -17 33 27.50  .00713  49.0 21??
2021 01 08 08  15 49 08.894   -17 34 16.33  .00713  49.1 21??
2021 01 08 09  15 49 16.033   -17 35 05.18  .00713  49.1 21??
2021 01 08 10  15 49 23.184   -17 35 54.06  .00713  49.1 21??
2021 01 08 11  15 49 30.348   -17 36 42.96  .00713  49.1 21??
2021 01 08 12  15 49 37.526   -17 37 31.90  .00713  49.1 21??
2021 01 08 13  15 49 44.717   -17 38 20.86  .00713  49.1 21??
2021 01 08 14  15 49 51.920   -17 39 09.84  .00713  49.1 21??
2021 01 08 15  15 49 59.137   -17 39 58.85  .00713  49.1 21??
2021 01 08 16  15 50 06.367   -17 40 47.89  .00713  49.1 21??
2021 01 08 17  15 50 13.611   -17 41 36.96  .00713  49.2 21??
2021 01 08 18  15 50 20.867   -17 42 26.05  .00713  49.2 21??
2021 01 08 19  15 50 28.137   -17 43 15.17  .00713  49.2 21??
2021 01 08 20  15 50 35.419   -17 44 04.32  .00713  49.2 21??
2021 01 08 21  15 50 42.716   -17 44 53.50  .00713  49.2 21??
2021 01 08 22  15 50 50.025   -17 45 42.70  .00713  49.2 21??
2021 01 08 23  15 50 57.347   -17 46 31.93  .00713  49.2 21??
2021 01 09 00  15 51 04.683   -17 47 21.19  .00713  49.2 21??
2021 01 09 01  15 51 12.032   -17 48 10.47  .00713  49.2 21??
2021 01 09 02  15 51 19.395   -17 48 59.79  .00713  49.3 21??
2021 01 09 03  15 51 26.771   -17 49 49.13  .00713  49.3 21??
2021 01 09 04  15 51 34.160   -17 50 38.50  .00713  49.3 21??
2021 01 09 05  15 51 41.563   -17 51 27.89  .00713  49.3 21??
2021 01 09 06  15 51 48.978   -17 52 17.32  .00713  49.3 21??
2021 01 09 07  15 51 56.408   -17 53 06.77  .00713  49.3 21??
2021 01 09 08  15 52 03.851   -17 53 56.25  .00713  49.3 21??
2021 01 09 09  15 52 11.307   -17 54 45.76  .00713  49.3 21??
2021 01 09 10  15 52 18.777   -17 55 35.30  .00713  49.3 21??
2021 01 09 11  15 52 26.260   -17 56 24.87  .00713  49.4 21??
2021 01 09 12  15 52 33.756   -17 57 14.46  .00713  49.4 21??
2021 01 09 13  15 52 41.267   -17 58 04.08  .00713  49.4 21??
2021 01 09 14  15 52 48.790   -17 58 53.74  .00713  49.4 21??
2021 01 09 15  15 52 56.328   -17 59 43.42  .00713  49.4 21??
2021 01 09 16  15 53 03.879   -18 00 33.13  .00713  49.4 21??
2021 01 09 17  15 53 11.443   -18 01 22.87  .00713  49.4 21??
2021 01 09 18  15 53 19.021   -18 02 12.64  .00713  49.4 21??
2021 01 09 19  15 53 26.613   -18 03 02.43  .00712  49.4 21??
2021 01 09 20  15 53 34.219   -18 03 52.26  .00712  49.4 21??
2021 01 09 21  15 53 41.838   -18 04 42.12  .00712  49.5 21??
2021 01 09 22  15 53 49.471   -18 05 32.00  .00712  49.5 21??
2021 01 09 23  15 53 57.117   -18 06 21.92  .00712  49.5 21??